sensor_id;sensor_type;location;lat;lon;timestamp;pressure;altitude;pressure_sealevel;temperature
68745;BMP180;66104;45.456;11.064;2023-05-07T00:00:23;100607.40;;;19.90
68745;BMP180;66104;45.456;11.064;2023-05-07T00:02:59;100613.00;;;19.88
68745;BMP180;66104;45.456;11.064;2023-05-07T00:05:35;100613.40;;;19.70
68745;BMP180;66104;45.456;11.064;2023-05-07T00:08:12;100612.80;;;19.60
68745;BMP180;66104;45.456;11.064;2023-05-07T00:10:49;100615.60;;;19.60
68745;BMP180;66104;45.456;11.064;2023-05-07T00:13:25;100616.20;;;19.50
68745;BMP180;66104;45.456;11.064;2023-05-07T00:16:04;100617.00;;;19.50
68745;BMP180;66104;45.456;11.064;2023-05-07T00:18:39;100615.20;;;19.50
68745;BMP180;66104;45.456;11.064;2023-05-07T00:21:16;100616.00;;;19.50
68745;BMP180;66104;45.456;11.064;2023-05-07T00:23:53;100612.80;;;19.44
68745;BMP180;66104;45.456;11.064;2023-05-07T00:26:30;100611.60;;;19.50
68745;BMP180;66104;45.456;11.064;2023-05-07T00:29:06;100608.60;;;19.50
68745;BMP180;66104;45.456;11.064;2023-05-07T00:31:42;100608.40;;;19.50
68745;BMP180;66104;45.456;11.064;2023-05-07T00:34:18;100606.20;;;19.50
68745;BMP180;66104;45.456;11.064;2023-05-07T00:36:55;100607.60;;;19.50
68745;BMP180;66104;45.456;11.064;2023-05-07T00:39:31;100605.40;;;19.50
68745;BMP180;66104;45.456;11.064;2023-05-07T00:42:08;100603.80;;;19.50
68745;BMP180;66104;45.456;11.064;2023-05-07T00:44:45;100603.40;;;19.50
68745;BMP180;66104;45.456;11.064;2023-05-07T00:47:22;100599.40;;;19.56
68745;BMP180;66104;45.456;11.064;2023-05-07T00:49:59;100596.80;;;19.60
68745;BMP180;66104;45.456;11.064;2023-05-07T00:52:35;100596.80;;;19.60
68745;BMP180;66104;45.456;11.064;2023-05-07T00:55:13;100599.80;;;19.60
68745;BMP180;66104;45.456;11.064;2023-05-07T00:57:50;100605.80;;;19.60
68745;BMP180;66104;45.456;11.064;2023-05-07T01:00:26;100606.00;;;19.60
68745;BMP180;66104;45.456;11.064;2023-05-07T01:03:03;100601.40;;;19.60
68745;BMP180;66104;45.456;11.064;2023-05-07T01:05:41;100601.40;;;19.60
68745;BMP180;66104;45.456;11.064;2023-05-07T01:08:19;100599.80;;;19.60
68745;BMP180;66104;45.456;11.064;2023-05-07T01:10:57;100602.20;;;19.60
68745;BMP180;66104;45.456;11.064;2023-05-07T01:13:33;100601.00;;;19.62
68745;BMP180;66104;45.456;11.064;2023-05-07T01:16:14;100602.00;;;19.66
68745;BMP180;66104;45.456;11.064;2023-05-07T01:18:51;100597.00;;;19.60
68745;BMP180;66104;45.456;11.064;2023-05-07T01:21:33;100596.80;;;19.70
68745;BMP180;66104;45.456;11.064;2023-05-07T01:24:11;100592.60;;;19.70
68745;BMP180;66104;45.456;11.064;2023-05-07T01:26:48;100594.80;;;19.60
68745;BMP180;66104;45.456;11.064;2023-05-07T01:29:24;100589.00;;;19.60
68745;BMP180;66104;45.456;11.064;2023-05-07T01:32:02;100587.00;;;19.60
68745;BMP180;66104;45.456;11.064;2023-05-07T01:34:39;100580.60;;;19.60
68745;BMP180;66104;45.456;11.064;2023-05-07T01:37:17;100577.40;;;19.60
68745;BMP180;66104;45.456;11.064;2023-05-07T01:39:54;100577.80;;;19.60
68745;BMP180;66104;45.456;11.064;2023-05-07T01:42:31;100575.20;;;19.60
68745;BMP180;66104;45.456;11.064;2023-05-07T01:45:10;100572.20;;;19.60
68745;BMP180;66104;45.456;11.064;2023-05-07T01:47:48;100575.00;;;19.60
68745;BMP180;66104;45.456;11.064;2023-05-07T01:50:26;100580.00;;;19.60
68745;BMP180;66104;45.456;11.064;2023-05-07T01:53:03;100583.00;;;19.60
68745;BMP180;66104;45.456;11.064;2023-05-07T01:55:39;100583.40;;;19.60
68745;BMP180;66104;45.456;11.064;2023-05-07T01:58:16;100582.20;;;19.50
68745;BMP180;66104;45.456;11.064;2023-05-07T02:00:52;100587.00;;;19.50
68745;BMP180;66104;45.456;11.064;2023-05-07T02:03:28;100583.00;;;19.40
68745;BMP180;66104;45.456;11.064;2023-05-07T02:06:10;100588.80;;;19.34
68745;BMP180;66104;45.456;11.064;2023-05-07T02:08:47;100593.00;;;19.24
68745;BMP180;66104;45.456;11.064;2023-05-07T02:11:23;100590.40;;;19.10
68745;BMP180;66104;45.456;11.064;2023-05-07T02:13:59;100595.60;;;19.00
68745;BMP180;66104;45.456;11.064;2023-05-07T02:16:37;100597.40;;;18.90
68745;BMP180;66104;45.456;11.064;2023-05-07T02:19:13;100595.20;;;18.80
68745;BMP180;66104;45.456;11.064;2023-05-07T02:21:49;100588.40;;;18.80
68745;BMP180;66104;45.456;11.064;2023-05-07T02:24:26;100589.60;;;18.80
68745;BMP180;66104;45.456;11.064;2023-05-07T02:27:02;100589.00;;;18.80
68745;BMP180;66104;45.456;11.064;2023-05-07T02:29:38;100589.60;;;18.80
68745;BMP180;66104;45.456;11.064;2023-05-07T02:32:15;100589.40;;;18.80
68745;BMP180;66104;45.456;11.064;2023-05-07T02:37:49;100595.80;;;18.90
68745;BMP180;66104;45.456;11.064;2023-05-07T02:40:27;100590.80;;;18.90
68745;BMP180;66104;45.456;11.064;2023-05-07T02:43:04;100587.40;;;19.00
68745;BMP180;66104;45.456;11.064;2023-05-07T02:45:42;100583.80;;;19.00
68745;BMP180;66104;45.456;11.064;2023-05-07T02:48:19;100586.20;;;18.96
68745;BMP180;66104;45.456;11.064;2023-05-07T02:50:56;100591.60;;;18.90
68745;BMP180;66104;45.456;11.064;2023-05-07T02:53:32;100592.80;;;18.90
68745;BMP180;66104;45.456;11.064;2023-05-07T02:56:13;100591.20;;;18.90
68745;BMP180;66104;45.456;11.064;2023-05-07T02:58:50;100586.40;;;18.90
68745;BMP180;66104;45.456;11.064;2023-05-07T03:01:28;100588.80;;;18.90
68745;BMP180;66104;45.456;11.064;2023-05-07T03:04:10;100590.60;;;19.00
68745;BMP180;66104;45.456;11.064;2023-05-07T03:06:47;100593.80;;;19.00
68745;BMP180;66104;45.456;11.064;2023-05-07T03:09:23;100591.60;;;19.00
68745;BMP180;66104;45.456;11.064;2023-05-07T03:12:01;100592.40;;;19.00
68745;BMP180;66104;45.456;11.064;2023-05-07T03:14:37;100593.60;;;19.00
68745;BMP180;66104;45.456;11.064;2023-05-07T03:17:14;100597.20;;;19.00
68745;BMP180;66104;45.456;11.064;2023-05-07T03:19:49;100599.00;;;19.00
68745;BMP180;66104;45.456;11.064;2023-05-07T03:22:30;100596.80;;;19.00
68745;BMP180;66104;45.456;11.064;2023-05-07T03:25:10;100594.40;;;19.00
68745;BMP180;66104;45.456;11.064;2023-05-07T03:27:48;100595.00;;;19.00
68745;BMP180;66104;45.456;11.064;2023-05-07T03:30:26;100594.80;;;19.00
68745;BMP180;66104;45.456;11.064;2023-05-07T03:33:02;100590.20;;;19.00
68745;BMP180;66104;45.456;11.064;2023-05-07T03:35:38;100591.60;;;19.00
68745;BMP180;66104;45.456;11.064;2023-05-07T03:38:15;100593.20;;;19.00
68745;BMP180;66104;45.456;11.064;2023-05-07T03:40:55;100583.20;;;18.90
68745;BMP180;66104;45.456;11.064;2023-05-07T03:43:31;100588.60;;;18.90
68745;BMP180;66104;45.456;11.064;2023-05-07T03:46:12;100590.60;;;18.80
68745;BMP180;66104;45.456;11.064;2023-05-07T03:48:50;100586.00;;;18.80
68745;BMP180;66104;45.456;11.064;2023-05-07T03:51:28;100585.80;;;18.80
68745;BMP180;66104;45.456;11.064;2023-05-07T03:54:04;100590.00;;;18.80
68745;BMP180;66104;45.456;11.064;2023-05-07T03:56:42;100591.40;;;18.70
68745;BMP180;66104;45.456;11.064;2023-05-07T03:59:18;100593.80;;;18.70
68745;BMP180;66104;45.456;11.064;2023-05-07T04:01:56;100593.80;;;18.70
68745;BMP180;66104;45.456;11.064;2023-05-07T04:04:36;100596.00;;;18.70
68745;BMP180;66104;45.456;11.064;2023-05-07T04:07:14;100600.60;;;18.70
68745;BMP180;66104;45.456;11.064;2023-05-07T04:09:53;100602.00;;;18.70
68745;BMP180;66104;45.456;11.064;2023-05-07T04:12:30;100598.00;;;18.60
68745;BMP180;66104;45.456;11.064;2023-05-07T04:15:10;100596.40;;;18.48
68745;BMP180;66104;45.456;11.064;2023-05-07T04:17:47;100594.20;;;18.30
68745;BMP180;66104;45.456;11.064;2023-05-07T04:20:27;100598.60;;;18.20
68745;BMP180;66104;45.456;11.064;2023-05-07T04:23:07;100602.40;;;18.30
68745;BMP180;66104;45.456;11.064;2023-05-07T04:25:45;100603.40;;;18.30
68745;BMP180;66104;45.456;11.064;2023-05-07T04:28:50;100604.80;;;18.30
68745;BMP180;66104;45.456;11.064;2023-05-07T04:31:27;100608.00;;;18.40
68745;BMP180;66104;45.456;11.064;2023-05-07T04:34:04;100605.40;;;18.50
68745;BMP180;66104;45.456;11.064;2023-05-07T04:36:40;100605.60;;;18.50
68745;BMP180;66104;45.456;11.064;2023-05-07T04:39:17;100606.40;;;18.60
68745;BMP180;66104;45.456;11.064;2023-05-07T04:41:55;100603.00;;;18.60
68745;BMP180;66104;45.456;11.064;2023-05-07T04:44:32;100601.40;;;18.60
68745;BMP180;66104;45.456;11.064;2023-05-07T04:47:09;100606.00;;;18.72
68745;BMP180;66104;45.456;11.064;2023-05-07T04:49:46;100603.80;;;19.02
68745;BMP180;66104;45.456;11.064;2023-05-07T04:52:23;100607.40;;;19.48
68745;BMP180;66104;45.456;11.064;2023-05-07T04:55:01;100610.20;;;20.02
68745;BMP180;66104;45.456;11.064;2023-05-07T04:57:41;100612.40;;;20.48
68745;BMP180;66104;45.456;11.064;2023-05-07T05:00:20;100617.20;;;20.60
68745;BMP180;66104;45.456;11.064;2023-05-07T05:02:57;100616.60;;;20.58
68745;BMP180;66104;45.456;11.064;2023-05-07T05:05:34;100618.80;;;20.40
68745;BMP180;66104;45.456;11.064;2023-05-07T05:08:11;100627.80;;;20.40
68745;BMP180;66104;45.456;11.064;2023-05-07T05:10:48;100635.40;;;20.30
68745;BMP180;66104;45.456;11.064;2023-05-07T05:13:24;100636.00;;;20.20
68745;BMP180;66104;45.456;11.064;2023-05-07T05:16:01;100634.20;;;20.10
68745;BMP180;66104;45.456;11.064;2023-05-07T05:18:38;100635.20;;;20.00
68745;BMP180;66104;45.456;11.064;2023-05-07T05:21:15;100639.00;;;19.90
68745;BMP180;66104;45.456;11.064;2023-05-07T05:23:53;100643.00;;;19.76
68745;BMP180;66104;45.456;11.064;2023-05-07T05:26:31;100647.40;;;19.66
68745;BMP180;66104;45.456;11.064;2023-05-07T05:29:08;100653.60;;;19.60
68745;BMP180;66104;45.456;11.064;2023-05-07T05:31:46;100656.40;;;19.60
68745;BMP180;66104;45.456;11.064;2023-05-07T05:34:24;100659.00;;;19.70
68745;BMP180;66104;45.456;11.064;2023-05-07T05:37:00;100662.20;;;19.70
68745;BMP180;66104;45.456;11.064;2023-05-07T05:39:38;100658.20;;;19.70
68745;BMP180;66104;45.456;11.064;2023-05-07T05:42:15;100662.80;;;19.80
68745;BMP180;66104;45.456;11.064;2023-05-07T05:44:52;100663.80;;;19.80
68745;BMP180;66104;45.456;11.064;2023-05-07T05:47:31;100662.20;;;19.80
68745;BMP180;66104;45.456;11.064;2023-05-07T05:50:11;100657.80;;;19.70
68745;BMP180;66104;45.456;11.064;2023-05-07T05:52:47;100654.60;;;19.70
68745;BMP180;66104;45.456;11.064;2023-05-07T05:55:25;100656.20;;;19.62
68745;BMP180;66104;45.456;11.064;2023-05-07T05:58:01;100655.40;;;19.60
68745;BMP180;66104;45.456;11.064;2023-05-07T06:00:39;100654.60;;;19.50
68745;BMP180;66104;45.456;11.064;2023-05-07T06:03:15;100659.00;;;19.50
68745;BMP180;66104;45.456;11.064;2023-05-07T06:05:53;100661.60;;;19.60
68745;BMP180;66104;45.456;11.064;2023-05-07T06:08:31;100666.00;;;19.70
68745;BMP180;66104;45.456;11.064;2023-05-07T06:11:09;100666.60;;;19.78
68745;BMP180;66104;45.456;11.064;2023-05-07T06:13:46;100670.20;;;19.80
68745;BMP180;66104;45.456;11.064;2023-05-07T06:16:24;100671.40;;;19.90
68745;BMP180;66104;45.456;11.064;2023-05-07T06:19:00;100675.20;;;20.10
68745;BMP180;66104;45.456;11.064;2023-05-07T06:21:38;100670.80;;;20.10
68745;BMP180;66104;45.456;11.064;2023-05-07T06:24:14;100663.60;;;20.26
68745;BMP180;66104;45.456;11.064;2023-05-07T06:26:51;100664.20;;;20.40
68745;BMP180;66104;45.456;11.064;2023-05-07T06:29:27;100665.80;;;20.50
68745;BMP180;66104;45.456;11.064;2023-05-07T06:32:13;100666.40;;;20.68
68745;BMP180;66104;45.456;11.064;2023-05-07T06:34:50;100663.40;;;20.78
68745;BMP180;66104;45.456;11.064;2023-05-07T06:37:27;100661.20;;;20.80
68745;BMP180;66104;45.456;11.064;2023-05-07T06:40:15;100660.40;;;20.90
68745;BMP180;66104;45.456;11.064;2023-05-07T06:42:52;100660.40;;;21.04
68745;BMP180;66104;45.456;11.064;2023-05-07T06:45:41;100659.60;;;21.20
68745;BMP180;66104;45.456;11.064;2023-05-07T06:48:17;100658.40;;;21.30
68745;BMP180;66104;45.456;11.064;2023-05-07T06:51:02;100664.00;;;21.50
68745;BMP180;66104;45.456;11.064;2023-05-07T06:53:39;100663.80;;;21.62
68745;BMP180;66104;45.456;11.064;2023-05-07T06:56:16;100668.80;;;21.78
68745;BMP180;66104;45.456;11.064;2023-05-07T06:58:54;100669.00;;;21.80
68745;BMP180;66104;45.456;11.064;2023-05-07T07:01:31;100668.80;;;21.90
68745;BMP180;66104;45.456;11.064;2023-05-07T07:04:09;100665.80;;;21.98
68745;BMP180;66104;45.456;11.064;2023-05-07T07:06:47;100658.00;;;22.00
68745;BMP180;66104;45.456;11.064;2023-05-07T07:09:23;100656.80;;;22.10
68745;BMP180;66104;45.456;11.064;2023-05-07T07:11:59;100655.80;;;22.10
68745;BMP180;66104;45.456;11.064;2023-05-07T07:14:36;100653.00;;;22.20
68745;BMP180;66104;45.456;11.064;2023-05-07T07:17:13;100656.40;;;22.20
68745;BMP180;66104;45.456;11.064;2023-05-07T07:19:49;100656.20;;;22.16
68745;BMP180;66104;45.456;11.064;2023-05-07T07:22:26;100660.00;;;22.10
68745;BMP180;66104;45.456;11.064;2023-05-07T07:25:02;100658.80;;;22.20
68745;BMP180;66104;45.456;11.064;2023-05-07T07:27:40;100660.80;;;22.20
68745;BMP180;66104;45.456;11.064;2023-05-07T07:30:18;100658.40;;;22.30
68745;BMP180;66104;45.456;11.064;2023-05-07T07:32:55;100655.40;;;22.40
68745;BMP180;66104;45.456;11.064;2023-05-07T07:35:38;100655.00;;;22.50
68745;BMP180;66104;45.456;11.064;2023-05-07T07:38:14;100652.00;;;22.50
68745;BMP180;66104;45.456;11.064;2023-05-07T07:40:52;100656.80;;;22.68
68745;BMP180;66104;45.456;11.064;2023-05-07T07:43:29;100652.40;;;22.76
68745;BMP180;66104;45.456;11.064;2023-05-07T07:46:06;100649.80;;;22.90
68745;BMP180;66104;45.456;11.064;2023-05-07T07:48:42;100649.80;;;23.00
68745;BMP180;66104;45.456;11.064;2023-05-07T07:51:18;100646.60;;;23.08
68745;BMP180;66104;45.456;11.064;2023-05-07T07:53:55;100648.60;;;23.08
68745;BMP180;66104;45.456;11.064;2023-05-07T07:56:31;100647.60;;;23.00
68745;BMP180;66104;45.456;11.064;2023-05-07T07:59:08;100649.60;;;23.00
68745;BMP180;66104;45.456;11.064;2023-05-07T08:01:45;100653.60;;;23.00
68745;BMP180;66104;45.456;11.064;2023-05-07T08:04:28;100654.80;;;23.00
68745;BMP180;66104;45.456;11.064;2023-05-07T08:07:09;100654.20;;;23.10
68745;BMP180;66104;45.456;11.064;2023-05-07T08:09:48;100664.00;;;23.20
68745;BMP180;66104;45.456;11.064;2023-05-07T08:12:27;100662.00;;;23.20
68745;BMP180;66104;45.456;11.064;2023-05-07T08:15:04;100665.40;;;23.28
68745;BMP180;66104;45.456;11.064;2023-05-07T08:17:41;100665.00;;;23.30
68745;BMP180;66104;45.456;11.064;2023-05-07T08:20:19;100662.40;;;23.30
68745;BMP180;66104;45.456;11.064;2023-05-07T08:22:57;100665.20;;;23.40
68745;BMP180;66104;45.456;11.064;2023-05-07T08:25:34;100669.20;;;23.40
68745;BMP180;66104;45.456;11.064;2023-05-07T08:28:11;100674.20;;;23.50
68745;BMP180;66104;45.456;11.064;2023-05-07T08:30:47;100676.20;;;23.50
68745;BMP180;66104;45.456;11.064;2023-05-07T08:33:25;100675.80;;;23.46
68745;BMP180;66104;45.456;11.064;2023-05-07T08:36:02;100681.60;;;23.40
68745;BMP180;66104;45.456;11.064;2023-05-07T08:38:40;100682.60;;;23.40
68745;BMP180;66104;45.456;11.064;2023-05-07T08:41:18;100682.80;;;23.38
68745;BMP180;66104;45.456;11.064;2023-05-07T08:43:55;100679.20;;;23.40
68745;BMP180;66104;45.456;11.064;2023-05-07T08:46:36;100682.40;;;23.40
68745;BMP180;66104;45.456;11.064;2023-05-07T08:49:13;100680.00;;;23.50
68745;BMP180;66104;45.456;11.064;2023-05-07T08:51:51;100679.40;;;23.60
68745;BMP180;66104;45.456;11.064;2023-05-07T08:54:29;100681.40;;;23.70
68745;BMP180;66104;45.456;11.064;2023-05-07T08:57:07;100685.00;;;23.78
68745;BMP180;66104;45.456;11.064;2023-05-07T08:59:44;100685.00;;;23.80
68745;BMP180;66104;45.456;11.064;2023-05-07T09:02:21;100681.80;;;23.90
68745;BMP180;66104;45.456;11.064;2023-05-07T09:04:58;100680.20;;;24.00
68745;BMP180;66104;45.456;11.064;2023-05-07T09:07:35;100679.80;;;24.00
68745;BMP180;66104;45.456;11.064;2023-05-07T09:10:16;100676.40;;;24.10
68745;BMP180;66104;45.456;11.064;2023-05-07T09:12:53;100677.80;;;24.10
68745;BMP180;66104;45.456;11.064;2023-05-07T09:15:29;100676.00;;;24.20
68745;BMP180;66104;45.456;11.064;2023-05-07T09:18:06;100672.00;;;24.30
68745;BMP180;66104;45.456;11.064;2023-05-07T09:20:43;100672.40;;;24.30
68745;BMP180;66104;45.456;11.064;2023-05-07T09:23:22;100668.20;;;24.30
68745;BMP180;66104;45.456;11.064;2023-05-07T09:26:05;100670.00;;;24.32
68745;BMP180;66104;45.456;11.064;2023-05-07T09:28:46;100669.40;;;24.40
68745;BMP180;66104;45.456;11.064;2023-05-07T09:31:23;100668.80;;;24.50
68745;BMP180;66104;45.456;11.064;2023-05-07T09:34:00;100663.80;;;24.50
68745;BMP180;66104;45.456;11.064;2023-05-07T09:36:38;100665.20;;;24.60
68745;BMP180;66104;45.456;11.064;2023-05-07T09:39:15;100670.00;;;24.76
68745;BMP180;66104;45.456;11.064;2023-05-07T09:41:51;100672.00;;;24.84
68745;BMP180;66104;45.456;11.064;2023-05-07T09:44:36;100667.60;;;24.90
68745;BMP180;66104;45.456;11.064;2023-05-07T09:47:19;100665.20;;;24.90
68745;BMP180;66104;45.456;11.064;2023-05-07T09:50:01;100660.20;;;24.90
68745;BMP180;66104;45.456;11.064;2023-05-07T09:52:41;100665.00;;;24.86
68745;BMP180;66104;45.456;11.064;2023-05-07T09:55:17;100659.20;;;24.80
68745;BMP180;66104;45.456;11.064;2023-05-07T09:57:55;100663.40;;;24.70
68745;BMP180;66104;45.456;11.064;2023-05-07T10:00:34;100663.60;;;24.60
68745;BMP180;66104;45.456;11.064;2023-05-07T10:03:14;100661.20;;;24.60
68745;BMP180;66104;45.456;11.064;2023-05-07T10:05:58;100662.00;;;24.60
68745;BMP180;66104;45.456;11.064;2023-05-07T10:08:35;100658.60;;;24.60
68745;BMP180;66104;45.456;11.064;2023-05-07T10:11:13;100660.40;;;24.70
68745;BMP180;66104;45.456;11.064;2023-05-07T10:13:51;100660.00;;;24.70
68745;BMP180;66104;45.456;11.064;2023-05-07T10:16:29;100658.40;;;24.80
68745;BMP180;66104;45.456;11.064;2023-05-07T10:19:07;100650.40;;;24.90
68745;BMP180;66104;45.456;11.064;2023-05-07T10:21:54;100653.40;;;25.00
68745;BMP180;66104;45.456;11.064;2023-05-07T10:24:35;100654.80;;;25.10
68745;BMP180;66104;45.456;11.064;2023-05-07T10:27:18;100654.20;;;25.20
68745;BMP180;66104;45.456;11.064;2023-05-07T10:30:08;100653.00;;;25.30
68745;BMP180;66104;45.456;11.064;2023-05-07T10:32:53;100650.40;;;25.30
68745;BMP180;66104;45.456;11.064;2023-05-07T10:35:44;100645.80;;;25.30
68745;BMP180;66104;45.456;11.064;2023-05-07T10:38:21;100644.60;;;25.20
68745;BMP180;66104;45.456;11.064;2023-05-07T10:40:59;100645.60;;;25.20
68745;BMP180;66104;45.456;11.064;2023-05-07T10:43:45;100645.40;;;25.30
68745;BMP180;66104;45.456;11.064;2023-05-07T10:46:27;100644.60;;;25.40
68745;BMP180;66104;45.456;11.064;2023-05-07T10:49:15;100645.00;;;25.50
68745;BMP180;66104;45.456;11.064;2023-05-07T10:52:27;100648.80;;;25.60
68745;BMP180;66104;45.456;11.064;2023-05-07T10:55:30;100647.00;;;25.78
68745;BMP180;66104;45.456;11.064;2023-05-07T10:58:29;100642.40;;;25.80
68745;BMP180;66104;45.456;11.064;2023-05-07T11:01:56;100642.00;;;25.90
68745;BMP180;66104;45.456;11.064;2023-05-07T11:04:42;100634.60;;;25.96
68745;BMP180;66104;45.456;11.064;2023-05-07T11:07:42;100634.40;;;26.00
68745;BMP180;66104;45.456;11.064;2023-05-07T11:10:53;100630.00;;;26.10
68745;BMP180;66104;45.456;11.064;2023-05-07T11:13:54;100626.60;;;26.10
68745;BMP180;66104;45.456;11.064;2023-05-07T11:16:40;100623.20;;;26.10
68745;BMP180;66104;45.456;11.064;2023-05-07T11:19:52;100624.00;;;26.20
68745;BMP180;66104;45.456;11.064;2023-05-07T11:22:55;100620.20;;;26.10
68745;BMP180;66104;45.456;11.064;2023-05-07T11:26:06;100614.80;;;26.00
68745;BMP180;66104;45.456;11.064;2023-05-07T11:28:44;100610.40;;;26.10
68745;BMP180;66104;45.456;11.064;2023-05-07T11:31:25;100610.40;;;26.10
68745;BMP180;66104;45.456;11.064;2023-05-07T11:34:04;100603.20;;;26.06
68745;BMP180;66104;45.456;11.064;2023-05-07T11:36:45;100605.00;;;26.04
68745;BMP180;66104;45.456;11.064;2023-05-07T11:39:34;100602.80;;;26.10
68745;BMP180;66104;45.456;11.064;2023-05-07T11:42:29;100601.80;;;26.30
68745;BMP180;66104;45.456;11.064;2023-05-07T11:45:09;100601.40;;;26.36
68745;BMP180;66104;45.456;11.064;2023-05-07T11:47:47;100600.00;;;26.40
68745;BMP180;66104;45.456;11.064;2023-05-07T11:50:25;100598.60;;;26.40
68745;BMP180;66104;45.456;11.064;2023-05-07T11:53:01;100596.80;;;26.44
68745;BMP180;66104;45.456;11.064;2023-05-07T11:55:43;100594.00;;;26.50
68745;BMP180;66104;45.456;11.064;2023-05-07T11:58:26;100592.60;;;26.60
68745;BMP180;66104;45.456;11.064;2023-05-07T12:01:02;100597.60;;;26.60
68745;BMP180;66104;45.456;11.064;2023-05-07T12:03:39;100596.00;;;26.50
68745;BMP180;66104;45.456;11.064;2023-05-07T12:06:17;100592.20;;;26.60
68745;BMP180;66104;45.456;11.064;2023-05-07T12:08:53;100590.00;;;26.68
68745;BMP180;66104;45.456;11.064;2023-05-07T12:11:29;100593.80;;;26.70
68745;BMP180;66104;45.456;11.064;2023-05-07T12:14:06;100593.40;;;26.60
68745;BMP180;66104;45.456;11.064;2023-05-07T12:16:46;100599.40;;;26.60
68745;BMP180;66104;45.456;11.064;2023-05-07T12:19:23;100595.60;;;26.50
68745;BMP180;66104;45.456;11.064;2023-05-07T12:22:00;100597.20;;;26.40
68745;BMP180;66104;45.456;11.064;2023-05-07T12:24:48;100595.80;;;26.40
68745;BMP180;66104;45.456;11.064;2023-05-07T12:27:25;100597.00;;;26.50
68745;BMP180;66104;45.456;11.064;2023-05-07T12:30:02;100599.60;;;26.70
68745;BMP180;66104;45.456;11.064;2023-05-07T12:32:38;100597.00;;;26.84
68745;BMP180;66104;45.456;11.064;2023-05-07T12:35:15;100599.20;;;27.00
68745;BMP180;66104;45.456;11.064;2023-05-07T12:38:00;100599.40;;;27.10
68745;BMP180;66104;45.456;11.064;2023-05-07T12:40:45;100592.00;;;27.30
68745;BMP180;66104;45.456;11.064;2023-05-07T12:43:27;100591.00;;;27.30
68745;BMP180;66104;45.456;11.064;2023-05-07T12:46:06;100591.60;;;27.40
68745;BMP180;66104;45.456;11.064;2023-05-07T12:48:47;100589.80;;;27.50
68745;BMP180;66104;45.456;11.064;2023-05-07T12:51:24;100591.20;;;27.60
68745;BMP180;66104;45.456;11.064;2023-05-07T12:54:02;100583.20;;;27.60
68745;BMP180;66104;45.456;11.064;2023-05-07T12:56:40;100578.20;;;27.70
68745;BMP180;66104;45.456;11.064;2023-05-07T12:59:17;100581.20;;;27.70
68745;BMP180;66104;45.456;11.064;2023-05-07T13:01:53;100577.00;;;27.80
68745;BMP180;66104;45.456;11.064;2023-05-07T13:04:30;100570.40;;;27.80
68745;BMP180;66104;45.456;11.064;2023-05-07T13:07:06;100569.40;;;27.80
68745;BMP180;66104;45.456;11.064;2023-05-07T13:09:43;100568.60;;;27.80
68745;BMP180;66104;45.456;11.064;2023-05-07T13:12:21;100567.80;;;27.78
68745;BMP180;66104;45.456;11.064;2023-05-07T13:14:57;100563.00;;;27.70
68745;BMP180;66104;45.456;11.064;2023-05-07T13:17:33;100565.60;;;27.70
68745;BMP180;66104;45.456;11.064;2023-05-07T13:20:14;100562.60;;;27.70
68745;BMP180;66104;45.456;11.064;2023-05-07T13:22:50;100559.80;;;27.70
68745;BMP180;66104;45.456;11.064;2023-05-07T13:25:27;100560.80;;;27.80
68745;BMP180;66104;45.456;11.064;2023-05-07T13:28:03;100554.00;;;27.80
68745;BMP180;66104;45.456;11.064;2023-05-07T13:30:44;100553.40;;;27.84
68745;BMP180;66104;45.456;11.064;2023-05-07T13:33:19;100544.00;;;27.80
68745;BMP180;66104;45.456;11.064;2023-05-07T13:35:56;100543.00;;;27.80
68745;BMP180;66104;45.456;11.064;2023-05-07T13:38:33;100545.20;;;27.80
68745;BMP180;66104;45.456;11.064;2023-05-07T13:41:10;100541.40;;;27.80
68745;BMP180;66104;45.456;11.064;2023-05-07T13:43:47;100535.20;;;27.90
68745;BMP180;66104;45.456;11.064;2023-05-07T13:46:24;100535.00;;;27.90
68745;BMP180;66104;45.456;11.064;2023-05-07T13:49:00;100536.40;;;27.98
68745;BMP180;66104;45.456;11.064;2023-05-07T13:51:36;100534.00;;;28.00
68745;BMP180;66104;45.456;11.064;2023-05-07T13:54:13;100531.20;;;28.10
68745;BMP180;66104;45.456;11.064;2023-05-07T13:56:48;100530.60;;;28.10
68745;BMP180;66104;45.456;11.064;2023-05-07T13:59:25;100530.20;;;28.04
68745;BMP180;66104;45.456;11.064;2023-05-07T14:02:02;100525.20;;;28.00
68745;BMP180;66104;45.456;11.064;2023-05-07T14:04:39;100525.20;;;28.00
68745;BMP180;66104;45.456;11.064;2023-05-07T14:07:15;100523.60;;;27.90
68745;BMP180;66104;45.456;11.064;2023-05-07T14:09:51;100517.00;;;28.00
68745;BMP180;66104;45.456;11.064;2023-05-07T14:12:28;100518.20;;;28.00
68745;BMP180;66104;45.456;11.064;2023-05-07T14:15:06;100515.60;;;28.00
68745;BMP180;66104;45.456;11.064;2023-05-07T14:17:44;100516.60;;;28.00
68745;BMP180;66104;45.456;11.064;2023-05-07T14:20:20;100511.40;;;28.10
68745;BMP180;66104;45.456;11.064;2023-05-07T14:22:57;100507.80;;;28.10
68745;BMP180;66104;45.456;11.064;2023-05-07T14:25:33;100506.20;;;28.00
68745;BMP180;66104;45.456;11.064;2023-05-07T14:28:10;100507.40;;;28.00
68745;BMP180;66104;45.456;11.064;2023-05-07T14:30:46;100512.40;;;28.00
68745;BMP180;66104;45.456;11.064;2023-05-07T14:33:22;100514.40;;;27.90
68745;BMP180;66104;45.456;11.064;2023-05-07T14:35:58;100511.40;;;27.90
68745;BMP180;66104;45.456;11.064;2023-05-07T14:38:35;100512.60;;;27.90
68745;BMP180;66104;45.456;11.064;2023-05-07T14:41:12;100515.60;;;28.00
68745;BMP180;66104;45.456;11.064;2023-05-07T14:43:48;100516.60;;;27.92
68745;BMP180;66104;45.456;11.064;2023-05-07T14:46:26;100519.00;;;27.90
68745;BMP180;66104;45.456;11.064;2023-05-07T14:49:03;100518.60;;;27.90
68745;BMP180;66104;45.456;11.064;2023-05-07T14:51:39;100517.40;;;27.80